createdAt,value
2018-11-05T00:01:55.748Z,28.00
2018-11-05T00:04:23.056Z,29.25
2018-11-05T00:06:50.429Z,30.68
2018-11-05T00:09:17.705Z,29.27
2018-11-05T00:11:45.118Z,26.10
2018-11-05T00:14:12.401Z,28.57
2018-11-05T00:16:39.721Z,31.87
2018-11-05T00:19:07.626Z,29.75
2018-11-05T00:21:34.950Z,27.60
2018-11-05T00:24:02.254Z,29.90
2018-11-05T00:26:29.614Z,27.75
2018-11-05T00:28:56.892Z,27.37
2018-11-05T00:31:24.189Z,27.25
2018-11-05T00:37:06.246Z,25.48
2018-11-05T00:39:33.573Z,25.92
2018-11-05T00:42:00.952Z,27.32
2018-11-05T00:44:28.266Z,27.67
2018-11-05T00:46:55.583Z,28.90
2018-11-05T00:49:22.914Z,25.90
2018-11-05T00:51:50.229Z,30.02
2018-11-05T00:54:17.707Z,25.95
2018-11-05T00:56:44.996Z,28.87
2018-11-05T00:59:12.354Z,26.42
2018-11-05T01:01:39.665Z,27.10
2018-11-05T01:04:06.968Z,29.10
2018-11-05T01:06:34.303Z,28.40
2018-11-05T01:09:01.647Z,26.55
2018-11-05T01:11:28.979Z,28.42
2018-11-05T01:13:56.295Z,28.35
2018-11-05T01:16:23.605Z,28.02
2018-11-05T01:18:50.911Z,28.12
2018-11-05T01:21:18.250Z,27.73
2018-11-05T01:23:45.595Z,30.65
2018-11-05T01:26:12.922Z,30.25
2018-11-05T01:28:40.229Z,30.65
2018-11-05T01:31:07.568Z,30.25
2018-11-05T01:33:34.874Z,29.67
2018-11-05T01:36:02.276Z,28.27
2018-11-05T01:38:29.604Z,28.30
2018-11-05T01:40:56.883Z,33.30
2018-11-05T01:43:24.178Z,26.02
2018-11-05T01:45:51.506Z,30.68
2018-11-05T01:48:18.791Z,25.05
2018-11-05T01:50:46.113Z,29.55
2018-11-05T01:53:13.425Z,26.25
2018-11-05T01:55:40.737Z,28.87
2018-11-05T01:58:08.593Z,28.67
2018-11-05T02:00:35.904Z,28.57
2018-11-05T02:03:03.361Z,32.93
2018-11-05T02:05:30.675Z,30.95
2018-11-05T02:07:57.970Z,28.73
2018-11-05T02:10:25.422Z,32.58
2018-11-05T02:12:52.706Z,32.70
2018-11-05T02:15:20.050Z,30.57
2018-11-05T02:17:47.414Z,32.28
2018-11-05T02:20:15.694Z,36.77
2018-11-05T02:22:43.087Z,33.55
2018-11-05T02:25:11.634Z,34.55
2018-11-05T02:27:39.012Z,33.73
2018-11-05T02:30:08.178Z,32.65
2018-11-05T02:32:35.516Z,34.05
2018-11-05T02:35:02.827Z,35.60
2018-11-05T02:37:30.176Z,31.77
2018-11-05T02:39:57.603Z,33.42
2018-11-05T02:42:24.897Z,35.03
2018-11-05T02:44:52.246Z,34.55
2018-11-05T02:47:19.546Z,32.83
2018-11-05T02:49:46.885Z,34.73
2018-11-05T02:52:14.185Z,34.70
2018-11-05T02:54:41.505Z,37.55
2018-11-05T02:57:08.812Z,38.17
2018-11-05T02:59:36.128Z,36.03
2018-11-05T03:02:03.530Z,35.85
2018-11-05T03:04:30.894Z,34.23
2018-11-05T03:06:58.219Z,35.05
2018-11-05T03:09:25.553Z,36.08
2018-11-05T03:11:52.877Z,35.17
2018-11-05T03:14:20.226Z,35.83
2018-11-05T03:16:47.537Z,36.33
2018-11-05T03:19:14.899Z,36.48
2018-11-05T03:21:42.243Z,36.38
2018-11-05T03:24:09.553Z,36.45
2018-11-05T03:26:36.854Z,36.70
2018-11-05T03:29:04.171Z,38.17
2018-11-05T03:31:31.522Z,38.58
2018-11-05T03:33:58.831Z,38.65
2018-11-05T03:36:26.140Z,36.63
2018-11-05T03:38:53.511Z,38.02
2018-11-05T03:41:20.812Z,36.10
2018-11-05T03:43:48.152Z,35.33
2018-11-05T03:46:15.517Z,36.68
2018-11-05T03:48:42.805Z,33.25
2018-11-05T03:51:11.093Z,35.65
2018-11-05T03:53:38.424Z,35.98
2018-11-05T03:56:06.289Z,37.65
2018-11-05T03:58:33.543Z,34.40
2018-11-05T04:01:00.890Z,33.10
2018-11-05T04:03:28.259Z,34.05
2018-11-05T04:05:55.574Z,37.93
2018-11-05T04:08:22.872Z,36.08
2018-11-05T04:10:50.166Z,34.98
2018-11-05T04:13:17.487Z,36.63
2018-11-05T04:15:44.842Z,37.95
2018-11-05T04:18:12.105Z,34.45
2018-11-05T04:20:39.455Z,37.13
2018-11-05T04:23:06.763Z,33.53
2018-11-05T04:25:34.077Z,36.38
2018-11-05T04:28:01.551Z,37.88
2018-11-05T04:30:28.725Z,37.70
2018-11-05T04:32:56.074Z,35.15
2018-11-05T04:35:23.369Z,36.63
2018-11-05T04:37:50.669Z,41.25
2018-11-05T04:40:17.962Z,44.73
2018-11-05T04:42:45.297Z,40.25
2018-11-05T04:45:13.480Z,45.75
2018-11-05T04:47:41.262Z,42.27
2018-11-05T04:50:09.257Z,44.53
2018-11-05T04:52:36.855Z,49.70
2018-11-05T04:55:04.718Z,46.02
2018-11-05T04:57:32.645Z,44.42
2018-11-05T05:00:04.285Z,45.63
2018-11-05T05:02:31.647Z,44.05
2018-11-05T05:04:58.995Z,46.25
2018-11-05T05:07:26.315Z,48.87
2018-11-05T05:09:53.606Z,44.93
2018-11-05T05:12:20.933Z,58.13
2018-11-05T05:14:48.224Z,59.05
2018-11-05T05:17:15.541Z,67.32
2018-11-05T05:19:42.889Z,61.05
2018-11-05T05:22:10.177Z,65.47
2018-11-05T05:24:37.529Z,66.33
2018-11-05T05:27:04.905Z,71.80
2018-11-05T05:29:32.393Z,70.15
2018-11-05T05:31:59.710Z,71.53
2018-11-05T05:34:26.994Z,67.08
2018-11-05T05:36:54.300Z,72.15
2018-11-05T05:39:21.602Z,75.28
2018-11-05T05:41:48.919Z,71.50
2018-11-05T05:44:16.218Z,72.75
2018-11-05T05:46:43.515Z,73.65
2018-11-05T05:49:10.846Z,68.28
2018-11-05T05:51:38.148Z,81.72
2018-11-05T05:54:05.670Z,77.67
2018-11-05T05:56:33.027Z,76.57
2018-11-05T05:59:00.349Z,77.17
2018-11-05T06:01:27.693Z,73.92
2018-11-05T06:03:55.150Z,87.42
2018-11-05T06:06:22.704Z,87.02
2018-11-05T06:08:49.808Z,86.57
2018-11-05T06:11:17.150Z,83.65
2018-11-05T06:13:44.486Z,86.37
2018-11-05T06:16:11.780Z,82.60
2018-11-05T06:18:39.096Z,78.47
2018-11-05T06:21:06.450Z,84.40
2018-11-05T06:23:33.750Z,82.80
2018-11-05T06:26:01.066Z,84.77
2018-11-05T06:28:28.435Z,88.12
2018-11-05T06:30:55.745Z,73.75
2018-11-05T06:33:23.075Z,76.85
2018-11-05T06:35:50.387Z,85.10
2018-11-05T06:38:17.713Z,79.82
2018-11-05T06:40:45.024Z,77.50
2018-11-05T06:43:12.362Z,75.70
2018-11-05T06:45:39.732Z,83.87
2018-11-05T06:48:07.160Z,83.92
2018-11-05T06:50:34.486Z,85.85
2018-11-05T06:53:01.975Z,90.42
2018-11-05T06:55:29.234Z,93.33
2018-11-05T06:57:56.577Z,81.05
2018-11-05T07:00:25.175Z,78.90
2018-11-05T07:02:52.525Z,92.80
2018-11-05T07:05:19.886Z,80.72
2018-11-05T07:07:47.235Z,76.57
2018-11-05T07:10:15.358Z,88.20
2018-11-05T07:12:42.971Z,82.82
2018-11-05T07:15:12.059Z,77.05
2018-11-05T07:17:39.489Z,75.83
2018-11-05T07:20:07.814Z,89.37
2018-11-05T07:22:35.159Z,79.77
2018-11-05T07:25:02.505Z,77.40
2018-11-05T07:27:29.896Z,86.00
2018-11-05T07:29:57.254Z,89.92
2018-11-05T07:32:24.577Z,76.55
2018-11-05T07:34:51.922Z,86.97
2018-11-05T07:37:19.302Z,91.95
2018-11-05T07:39:46.599Z,88.70
2018-11-05T07:42:13.956Z,82.62
2018-11-05T07:44:41.242Z,85.65
2018-11-05T07:47:08.573Z,85.32
2018-11-05T07:49:35.897Z,90.92
2018-11-05T07:52:03.247Z,87.08
2018-11-05T07:54:30.566Z,82.27
2018-11-05T07:56:57.976Z,87.47
2018-11-05T07:59:25.402Z,84.07
2018-11-05T08:01:52.733Z,85.72
2018-11-05T08:04:20.072Z,85.12
2018-11-05T08:06:47.382Z,84.00
2018-11-05T08:09:14.680Z,98.17
2018-11-05T08:11:41.978Z,80.40
2018-11-05T08:14:09.539Z,83.27
2018-11-05T08:16:37.206Z,79.92
2018-11-05T08:19:05.077Z,82.80
2018-11-05T08:21:32.391Z,75.20
2018-11-05T08:23:59.688Z,79.82
2018-11-05T08:26:27.066Z,74.35
2018-11-05T08:28:54.379Z,72.17
2018-11-05T08:31:22.097Z,72.45
2018-11-05T08:33:49.419Z,63.90
2018-11-05T08:36:16.786Z,80.03
2018-11-05T08:38:44.108Z,64.20
2018-11-05T08:41:11.399Z,60.58
2018-11-05T08:43:38.745Z,59.63
2018-11-05T08:46:06.077Z,54.05
2018-11-05T08:48:33.435Z,58.90
2018-11-05T08:51:00.953Z,65.80
2018-11-05T08:53:28.173Z,64.22
2018-11-05T08:55:55.497Z,62.62
2018-11-05T08:58:22.803Z,55.85
2018-11-05T09:00:56.363Z,57.15
2018-11-05T09:03:24.510Z,55.67
2018-11-05T09:05:52.054Z,57.48
2018-11-05T09:08:19.582Z,60.00
2018-11-05T09:10:47.904Z,53.40
2018-11-05T09:13:15.113Z,59.00
2018-11-05T09:15:42.577Z,50.10
2018-11-05T09:18:10.280Z,55.90
2018-11-05T09:20:37.726Z,55.70
2018-11-05T09:23:05.621Z,48.17
2018-11-05T09:25:33.288Z,53.23
2018-11-05T09:28:00.923Z,46.08
2018-11-05T09:30:28.547Z,48.40
2018-11-05T09:32:56.184Z,50.00
2018-11-05T09:35:23.559Z,48.30
2018-11-05T09:37:50.975Z,46.70
2018-11-05T09:40:19.989Z,50.70
2018-11-05T09:42:48.106Z,52.10
2018-11-05T09:45:17.657Z,48.65
2018-11-05T09:47:45.958Z,49.20
2018-11-05T09:50:13.672Z,50.03
2018-11-05T09:52:41.066Z,50.40
2018-11-05T09:55:11.188Z,48.35
2018-11-05T09:57:38.765Z,54.73
2018-11-05T10:00:10.856Z,49.93
2018-11-05T10:02:43.697Z,52.08
2018-11-05T10:05:12.293Z,50.38
2018-11-05T10:07:39.678Z,50.83
2018-11-05T10:10:07.945Z,51.30
2018-11-05T10:12:35.891Z,52.10
2018-11-05T10:15:03.409Z,58.28
2018-11-05T10:17:30.939Z,56.88
2018-11-05T10:19:59.568Z,46.80
2018-11-05T10:22:27.688Z,49.55
2018-11-05T10:24:55.994Z,55.08
2018-11-05T10:27:25.229Z,55.70
2018-11-05T10:29:53.094Z,59.53
2018-11-05T10:32:20.721Z,57.30
2018-11-05T10:34:48.853Z,52.13
2018-11-05T10:37:16.646Z,55.12
2018-11-05T10:39:44.291Z,53.15
2018-11-05T10:42:12.188Z,53.33
2018-11-05T10:44:39.883Z,62.20
2018-11-05T10:47:08.528Z,61.95
2018-11-05T10:49:36.680Z,54.25
2018-11-05T10:52:04.807Z,58.90
2018-11-05T10:54:32.246Z,54.10
2018-11-05T10:56:59.926Z,58.65
2018-11-05T10:59:27.510Z,56.35
2018-11-05T11:02:00.396Z,58.35
2018-11-05T11:04:34.394Z,53.55
2018-11-05T11:07:03.365Z,52.70
2018-11-05T11:09:31.079Z,57.25
2018-11-05T11:11:59.151Z,68.28
2018-11-05T11:14:26.907Z,65.52
2018-11-05T11:16:54.910Z,59.27
2018-11-05T11:19:22.614Z,58.08
2018-11-05T11:21:50.086Z,67.20
2018-11-05T11:24:17.942Z,57.08
2018-11-05T11:26:46.012Z,62.55
2018-11-05T11:29:13.585Z,58.78
2018-11-05T11:31:42.324Z,56.75
2018-11-05T11:34:09.679Z,57.83
2018-11-05T11:36:38.003Z,58.95
2018-11-05T11:39:06.724Z,57.65
2018-11-05T11:41:34.142Z,53.55
2018-11-05T11:44:01.678Z,61.77
2018-11-05T11:46:29.549Z,53.35
2018-11-05T11:48:57.168Z,56.02
2018-11-05T11:51:25.134Z,58.23
2018-11-05T11:53:52.656Z,50.45
2018-11-05T11:56:20.330Z,54.15
2018-11-05T11:58:47.921Z,52.45
2018-11-05T12:01:15.294Z,48.95
2018-11-05T12:03:43.154Z,51.13
2018-11-05T12:06:10.535Z,51.48
2018-11-05T12:08:38.460Z,51.45
2018-11-05T12:11:06.499Z,56.23
2018-11-05T12:13:34.099Z,50.10
2018-11-05T12:16:01.647Z,50.85
2018-11-05T12:18:29.033Z,54.25
2018-11-05T12:20:56.821Z,49.75
2018-11-05T12:23:24.644Z,54.85
2018-11-05T12:25:52.445Z,54.10
2018-11-05T12:28:20.587Z,50.45
2018-11-05T12:30:47.970Z,46.13
2018-11-05T12:33:15.517Z,57.50
2018-11-05T12:35:43.370Z,53.05
2018-11-05T12:38:11.072Z,58.23
2018-11-05T12:40:38.878Z,56.20
2018-11-05T12:43:06.593Z,54.53
2018-11-05T12:45:34.172Z,55.05
2018-11-05T12:48:01.980Z,63.05
2018-11-05T12:50:29.710Z,58.92
2018-11-05T12:52:57.748Z,61.85
2018-11-05T12:55:25.507Z,60.90
2018-11-05T12:57:53.255Z,60.63
2018-11-05T13:00:23.631Z,71.85
2018-11-05T13:03:00.573Z,72.82
2018-11-05T13:05:29.732Z,72.40
2018-11-05T13:07:57.552Z,66.30
2018-11-05T13:10:25.451Z,68.15
2018-11-05T13:12:53.018Z,67.53
2018-11-05T13:15:20.728Z,63.38
2018-11-05T13:17:48.277Z,70.30
2018-11-05T13:20:18.459Z,57.35
2018-11-05T13:22:46.428Z,61.95
2018-11-05T13:25:14.026Z,59.48
2018-11-05T13:27:43.154Z,62.65
2018-11-05T13:30:11.783Z,64.30
2018-11-05T13:32:39.818Z,63.45
2018-11-05T13:35:08.021Z,61.77
2018-11-05T13:37:36.087Z,64.87
2018-11-05T13:40:03.245Z,67.70
2018-11-05T13:42:30.785Z,67.17
2018-11-05T13:44:58.434Z,63.30
2018-11-05T13:47:26.480Z,66.17
2018-11-05T13:49:53.703Z,72.15
2018-11-05T13:52:21.340Z,66.82
2018-11-05T13:54:48.855Z,67.70
2018-11-05T13:57:16.469Z,62.17
2018-11-05T13:59:43.969Z,65.75
2018-11-05T14:02:11.577Z,66.55
2018-11-05T14:04:39.198Z,69.27
2018-11-05T14:07:06.691Z,65.30
2018-11-05T14:09:34.166Z,60.58
2018-11-05T14:12:01.754Z,70.15
2018-11-05T14:14:29.595Z,63.55
2018-11-05T14:16:57.410Z,70.65
2018-11-05T14:19:26.954Z,67.15
2018-11-05T14:21:54.588Z,68.25
2018-11-05T14:24:22.736Z,71.42
2018-11-05T14:26:51.954Z,74.80
2018-11-05T14:29:20.865Z,78.10
2018-11-05T14:31:49.721Z,71.20
2018-11-05T14:34:18.833Z,75.65
2018-11-05T14:36:49.636Z,71.87
2018-11-05T14:39:18.670Z,81.25
2018-11-05T14:41:48.050Z,76.35
2018-11-05T14:44:15.853Z,83.25
2018-11-05T14:46:44.667Z,72.42
2018-11-05T14:49:13.659Z,85.70
2018-11-05T14:51:43.221Z,91.25
2018-11-05T14:54:13.039Z,77.12
2018-11-05T14:56:40.828Z,86.10
2018-11-05T14:59:08.874Z,81.45
2018-11-05T15:01:36.945Z,83.55
2018-11-05T15:04:06.446Z,77.15
2018-11-05T15:06:34.525Z,80.92
2018-11-05T15:09:02.995Z,91.25
2018-11-05T15:11:33.300Z,83.20
2018-11-05T15:14:04.009Z,82.92
2018-11-05T15:16:34.099Z,83.52
2018-11-05T15:19:04.868Z,91.60
2018-11-05T15:21:33.787Z,88.72
2018-11-05T15:24:09.857Z,86.57
2018-11-05T15:26:38.224Z,89.15
2018-11-05T15:29:07.436Z,92.62
2018-11-05T15:31:36.178Z,93.65
2018-11-05T15:34:04.390Z,90.67
2018-11-05T15:36:36.847Z,86.12
2018-11-05T15:39:06.509Z,99.70
2018-11-05T15:41:34.856Z,91.92
2018-11-05T15:44:05.409Z,91.60
2018-11-05T15:46:34.775Z,86.65
2018-11-05T15:49:04.006Z,95.53
2018-11-05T15:51:31.602Z,92.42
2018-11-05T15:53:59.604Z,91.05
2018-11-05T15:56:30.020Z,89.90
2018-11-05T15:58:59.789Z,92.25
2018-11-05T16:01:28.446Z,100.02
2018-11-05T16:03:57.522Z,94.55
2018-11-05T16:06:26.820Z,101.53
2018-11-05T16:08:55.860Z,95.87
2018-11-05T16:11:29.250Z,104.07
2018-11-05T16:13:56.883Z,104.20
2018-11-05T16:16:26.427Z,110.85
2018-11-05T16:18:55.907Z,103.30
2018-11-05T16:21:24.546Z,108.52
2018-11-05T16:23:54.452Z,111.92
2018-11-05T16:26:23.191Z,108.03
2018-11-05T16:28:52.085Z,113.20
2018-11-05T16:31:19.850Z,112.05
2018-11-05T16:33:47.941Z,112.42
2018-11-05T16:36:15.491Z,112.60
2018-11-05T16:38:43.536Z,108.50
2018-11-05T16:41:10.977Z,106.47
2018-11-05T16:43:38.462Z,117.22
2018-11-05T16:46:06.588Z,112.37
2018-11-05T16:48:34.129Z,114.10
2018-11-05T16:51:01.498Z,113.22
2018-11-05T16:53:29.107Z,109.50
2018-11-05T16:55:56.905Z,119.53
2018-11-05T16:58:25.085Z,102.70
2018-11-05T17:00:52.708Z,118.50
2018-11-05T17:03:25.665Z,120.57
2018-11-05T17:05:54.849Z,128.72
2018-11-05T17:08:24.072Z,127.22
2018-11-05T17:10:54.385Z,128.25
2018-11-05T17:13:24.463Z,128.47
2018-11-05T17:15:53.187Z,127.70
2018-11-05T17:18:20.894Z,123.92
2018-11-05T17:20:48.357Z,121.28
2018-11-05T17:23:18.940Z,124.40
2018-11-05T17:25:48.756Z,122.95
2018-11-05T17:28:16.621Z,123.72
2018-11-05T17:30:44.191Z,120.55
2018-11-05T17:33:11.679Z,118.28
2018-11-05T17:35:41.955Z,115.70
2018-11-05T17:38:11.232Z,121.97
2018-11-05T17:40:41.996Z,121.90
2018-11-05T17:43:12.635Z,121.95
2018-11-05T17:45:40.324Z,129.12
2018-11-05T17:48:13.128Z,121.33
2018-11-05T17:50:41.744Z,112.17
2018-11-05T17:53:10.502Z,116.50
2018-11-05T17:55:38.710Z,111.28
2018-11-05T17:58:07.068Z,116.73
2018-11-05T18:00:35.868Z,123.95
2018-11-05T18:03:03.501Z,124.70
2018-11-05T18:05:38.013Z,125.33
2018-11-05T18:08:05.733Z,111.72
2018-11-05T18:10:34.673Z,121.17
2018-11-05T18:13:02.657Z,112.45
2018-11-05T18:15:31.110Z,119.57
2018-11-05T18:18:00.032Z,121.33
2018-11-05T18:20:28.073Z,118.42
2018-11-05T18:22:58.361Z,117.67
2018-11-05T18:25:26.844Z,121.87
2018-11-05T18:27:54.673Z,126.45
2018-11-05T18:30:23.783Z,135.80
2018-11-05T18:32:52.416Z,131.63
2018-11-05T18:35:20.661Z,122.98
2018-11-05T18:37:49.217Z,126.80
2018-11-05T18:40:16.818Z,131.35
2018-11-05T18:42:45.875Z,118.90
2018-11-05T18:45:14.082Z,140.30
2018-11-05T18:47:42.063Z,125.02
2018-11-05T18:50:10.930Z,130.93
2018-11-05T18:52:39.060Z,121.20
2018-11-05T18:55:07.747Z,118.60
2018-11-05T18:57:35.640Z,129.15
2018-11-05T19:00:03.761Z,129.27
2018-11-05T19:02:35.518Z,121.92
2018-11-05T19:05:03.514Z,129.60
2018-11-05T19:07:31.422Z,116.75
2018-11-05T19:09:59.397Z,128.20
2018-11-05T19:12:27.546Z,125.33
2018-11-05T19:14:55.568Z,117.97
2018-11-05T19:17:23.417Z,137.28
2018-11-05T19:19:51.188Z,130.00
2018-11-05T19:22:19.181Z,130.87
2018-11-05T19:24:47.136Z,123.95
2018-11-05T19:27:15.075Z,134.90
2018-11-05T19:29:42.891Z,122.50
2018-11-05T19:32:10.693Z,120.57
2018-11-05T19:34:39.383Z,124.27
2018-11-05T19:37:07.891Z,125.15
2018-11-05T19:39:35.395Z,125.45
2018-11-05T19:42:03.137Z,118.17
2018-11-05T19:44:32.177Z,138.52
2018-11-05T19:46:59.818Z,115.77
2018-11-05T19:49:27.497Z,123.13
2018-11-05T19:51:55.074Z,124.02
2018-11-05T19:54:22.857Z,118.82
2018-11-05T19:56:50.904Z,119.37
2018-11-05T19:59:19.085Z,124.58
2018-11-05T20:01:47.591Z,116.47
2018-11-05T20:04:15.769Z,114.80
2018-11-05T20:06:43.563Z,123.07
2018-11-05T20:09:11.278Z,106.43
2018-11-05T20:11:39.299Z,116.50
2018-11-05T20:14:06.957Z,108.20
2018-11-05T20:16:34.949Z,114.55
2018-11-05T20:19:02.626Z,117.87
2018-11-05T20:21:30.314Z,117.55
2018-11-05T20:23:57.960Z,117.93
2018-11-05T20:26:26.059Z,117.22
2018-11-05T20:28:53.685Z,113.90
2018-11-05T20:31:22.652Z,110.37
2018-11-05T20:33:50.231Z,108.30
2018-11-05T20:36:17.832Z,120.80
2018-11-05T20:38:47.133Z,118.85
2018-11-05T20:41:14.681Z,124.70
2018-11-05T20:43:43.131Z,132.50
2018-11-05T20:46:11.266Z,119.10
2018-11-05T20:48:38.705Z,122.37
2018-11-05T20:51:06.260Z,129.90
2018-11-05T20:53:34.288Z,142.35
2018-11-05T20:56:01.685Z,139.52
2018-11-05T20:58:29.408Z,127.50
2018-11-05T21:00:57.008Z,146.65
2018-11-05T21:03:24.766Z,125.40
2018-11-05T21:05:52.235Z,139.43
2018-11-05T21:08:19.885Z,137.28
2018-11-05T21:10:47.452Z,128.90
2018-11-05T21:13:14.976Z,133.67
2018-11-05T21:15:42.505Z,133.32
2018-11-05T21:18:10.899Z,133.47
2018-11-05T21:20:38.661Z,124.67
2018-11-05T21:23:06.646Z,126.07
2018-11-05T21:25:34.551Z,123.95
2018-11-05T21:28:02.608Z,131.37
2018-11-05T21:30:30.127Z,126.62
2018-11-05T21:32:59.075Z,126.85
2018-11-05T21:35:27.245Z,138.62
2018-11-05T21:37:54.931Z,151.68
2018-11-05T21:40:22.728Z,141.97
2018-11-05T21:42:50.287Z,136.60
2018-11-05T21:45:17.783Z,138.50
2018-11-05T21:47:46.375Z,139.18
2018-11-05T21:50:14.989Z,137.00
2018-11-05T21:52:44.092Z,138.37
2018-11-05T21:55:12.147Z,132.05
2018-11-05T21:57:41.319Z,147.85
2018-11-05T22:00:10.796Z,141.65
2018-11-05T22:03:41.407Z,162.85
2018-11-05T22:06:09.004Z,137.07
2018-11-05T22:08:36.938Z,171.87
2018-11-05T22:11:05.025Z,130.10
2018-11-05T22:13:32.578Z,184.05
2018-11-05T22:16:00.530Z,172.07
2018-11-05T22:18:28.773Z,127.97
2018-11-05T22:20:56.631Z,189.50
2018-11-05T22:23:24.117Z,131.67
2018-11-05T22:25:51.642Z,132.85
2018-11-05T22:28:19.598Z,152.82
2018-11-05T22:30:47.315Z,134.12
2018-11-05T22:33:14.914Z,131.15
2018-11-05T22:35:42.787Z,118.65
2018-11-05T22:38:10.557Z,133.75
2018-11-05T22:40:38.289Z,130.12
2018-11-05T22:43:05.994Z,152.65
2018-11-05T22:45:33.491Z,125.58
2018-11-05T22:48:00.997Z,142.80
2018-11-05T22:50:29.300Z,142.57
2018-11-05T22:52:56.751Z,108.95
2018-11-05T22:55:24.334Z,118.62
2018-11-05T22:57:51.830Z,104.43
2018-11-05T23:00:24.725Z,116.93
2018-11-05T23:02:57.468Z,147.75
2018-11-05T23:05:25.673Z,105.65
2018-11-05T23:07:54.877Z,181.57
2018-11-05T23:10:22.679Z,126.33
2018-11-05T23:12:50.671Z,105.45
2018-11-05T23:15:19.925Z,120.10
2018-11-05T23:17:47.500Z,109.17
2018-11-05T23:20:15.388Z,95.05
2018-11-05T23:22:45.302Z,126.20
2018-11-05T23:25:13.126Z,93.25
2018-11-05T23:27:41.094Z,110.15
2018-11-05T23:30:10.700Z,116.28
2018-11-05T23:32:39.465Z,116.47
2018-11-05T23:35:07.621Z,110.37
2018-11-05T23:37:35.117Z,93.95
2018-11-05T23:40:03.063Z,104.03
2018-11-05T23:42:30.640Z,93.42
2018-11-05T23:44:58.315Z,90.70
2018-11-05T23:47:27.551Z,101.42
2018-11-05T23:49:55.075Z,104.78
2018-11-05T23:52:22.940Z,79.40
2018-11-05T23:54:51.122Z,97.25
2018-11-05T23:57:18.735Z,108.20
2018-11-05T23:59:46.634Z,101.90
